createdAt,value
2018-06-06T00:01:27.454Z,96404.45
2018-06-06T00:03:57.533Z,96402.84
2018-06-06T00:06:27.643Z,96409.79
2018-06-06T00:08:57.677Z,96411.14
2018-06-06T00:11:27.631Z,96405.64
2018-06-06T00:13:57.737Z,96404.97
2018-06-06T00:16:27.792Z,96409.71
2018-06-06T00:18:57.759Z,96411.97
2018-06-06T00:21:27.762Z,96407.38
2018-06-06T00:23:57.791Z,96407.84
2018-06-06T00:26:27.923Z,96411.30
2018-06-06T00:28:57.843Z,96407.05
2018-06-06T00:31:27.861Z,96403.69
2018-06-06T00:33:57.851Z,96406.83
2018-06-06T00:36:27.909Z,96400.56
2018-06-06T00:38:57.986Z,96393.84
2018-06-06T00:41:28.015Z,96399.48
2018-06-06T00:43:58.344Z,96393.17
2018-06-06T00:46:28.048Z,96397.11
2018-06-06T00:48:58.100Z,96401.47
2018-06-06T00:51:28.147Z,96396.94
2018-06-06T00:53:58.101Z,96401.30
2018-06-06T00:56:28.149Z,96399.69
2018-06-06T00:58:58.160Z,96399.75
2018-06-06T01:01:28.301Z,96402.41
2018-06-06T01:03:58.286Z,96406.00
2018-06-06T01:06:28.318Z,96400.94
2018-06-06T01:08:58.897Z,96401.95
2018-06-06T01:11:28.315Z,96399.47
2018-06-06T01:13:58.350Z,96397.00
2018-06-06T01:16:28.415Z,96398.79
2018-06-06T01:18:59.043Z,96398.48
2018-06-06T01:21:28.553Z,96397.31
2018-06-06T01:23:58.456Z,96393.95
2018-06-06T01:26:28.469Z,96389.70
2018-06-06T01:28:58.571Z,96389.70
2018-06-06T01:31:28.516Z,96396.63
2018-06-06T01:33:58.541Z,96389.00
2018-06-06T01:36:28.607Z,96388.23
2018-06-06T01:38:58.623Z,96391.30
2018-06-06T01:41:28.676Z,96389.71
2018-06-06T01:43:58.633Z,96395.34
2018-06-06T01:46:27.722Z,96391.13
2018-06-06T01:48:56.885Z,96384.29
2018-06-06T01:51:26.003Z,96392.94
2018-06-06T01:53:55.119Z,96381.09
2018-06-06T01:56:24.251Z,96383.73
2018-06-06T01:58:53.472Z,96385.02
2018-06-06T02:01:22.615Z,96384.70
2018-06-06T02:03:51.759Z,96383.84
2018-06-06T02:06:21.015Z,96383.05
2018-06-06T02:08:50.235Z,96384.75
2018-06-06T02:11:19.373Z,96380.97
2018-06-06T02:13:48.541Z,96381.52
2018-06-06T02:16:17.947Z,96384.14
2018-06-06T02:18:47.121Z,96378.20
2018-06-06T02:21:16.221Z,96386.88
2018-06-06T02:23:45.285Z,96378.37
2018-06-06T02:26:17.267Z,96378.42
2018-06-06T02:28:46.349Z,96377.62
2018-06-06T02:31:15.487Z,96384.54
2018-06-06T02:33:44.637Z,96381.17
2018-06-06T02:36:13.814Z,96387.98
2018-06-06T02:38:42.915Z,96389.79
2018-06-06T02:41:12.001Z,96388.20
2018-06-06T02:43:41.100Z,96391.64
2018-06-06T02:46:10.250Z,96396.02
2018-06-06T02:48:39.392Z,96394.80
2018-06-06T02:51:08.493Z,96396.13
2018-06-06T02:53:37.676Z,96401.33
2018-06-06T02:56:06.790Z,96403.10
2018-06-06T02:58:35.986Z,96406.16
2018-06-06T03:01:05.126Z,96408.34
2018-06-06T03:03:34.292Z,96414.35
2018-06-06T03:06:04.072Z,96411.89
2018-06-06T03:08:33.173Z,96406.84
2018-06-06T03:11:02.411Z,96414.62
2018-06-06T03:13:31.573Z,96406.64
2018-06-06T03:16:00.748Z,96408.79
2018-06-06T03:18:29.948Z,96408.89
2018-06-06T03:20:59.947Z,96408.99
2018-06-06T03:23:30.058Z,96416.18
2018-06-06T03:26:00.158Z,96417.40
2018-06-06T03:28:29.865Z,96421.30
2018-06-06T03:30:59.874Z,96424.69
2018-06-06T03:33:30.032Z,96431.16
2018-06-06T03:36:00.542Z,96430.41
2018-06-06T03:38:30.417Z,96430.51
2018-06-06T03:41:00.259Z,96433.24
2018-06-06T03:43:30.114Z,96436.75
2018-06-06T03:46:00.090Z,96440.31
2018-06-06T03:48:30.384Z,96438.61
2018-06-06T03:51:00.126Z,96442.88
2018-06-06T03:53:29.230Z,96438.28
2018-06-06T03:55:58.327Z,96440.52
2018-06-06T03:58:27.452Z,96444.84
2018-06-06T04:00:56.609Z,96445.61
2018-06-06T04:03:25.728Z,96456.27
2018-06-06T04:05:54.853Z,96445.52
2018-06-06T04:08:24.058Z,96456.20
2018-06-06T04:10:53.323Z,96451.50
2018-06-06T04:13:22.471Z,96453.15
2018-06-06T04:15:51.708Z,96453.53
2018-06-06T04:18:20.790Z,96451.34
2018-06-06T04:20:50.548Z,96458.98
2018-06-06T04:23:19.639Z,96463.20
2018-06-06T04:25:48.770Z,96462.69
2018-06-06T04:28:19.190Z,96461.72
2018-06-06T04:30:48.274Z,96465.57
2018-06-06T04:33:17.402Z,96470.64
2018-06-06T04:35:46.472Z,96467.66
2018-06-06T04:38:15.629Z,96465.41
2018-06-06T04:40:44.720Z,96462.74
2018-06-06T04:43:13.837Z,96460.88
2018-06-06T04:45:42.955Z,96471.89
2018-06-06T04:48:13.780Z,96470.02
2018-06-06T04:50:42.936Z,96475.44
2018-06-06T04:53:12.082Z,96472.31
2018-06-06T04:55:41.192Z,96473.81
2018-06-06T04:58:10.256Z,96475.75
2018-06-06T05:00:39.862Z,96474.72
2018-06-06T05:03:09.368Z,96473.75
2018-06-06T05:05:38.506Z,96483.44
2018-06-06T05:08:07.664Z,96476.84
2018-06-06T05:10:36.804Z,96479.61
2018-06-06T05:13:09.824Z,96479.40
2018-06-06T05:15:38.988Z,96477.55
2018-06-06T05:18:08.259Z,96483.31
2018-06-06T05:20:37.563Z,96480.55
2018-06-06T05:23:10.404Z,96486.71
2018-06-06T05:25:39.600Z,96478.37
2018-06-06T05:28:08.862Z,96486.66
2018-06-06T05:30:38.009Z,96486.47
2018-06-06T05:33:07.194Z,96481.09
2018-06-06T05:35:43.210Z,96486.05
2018-06-06T05:38:12.414Z,96482.55
2018-06-06T05:40:41.554Z,96489.16
2018-06-06T05:43:10.726Z,96482.12
2018-06-06T05:45:39.786Z,96492.05
2018-06-06T05:48:09.688Z,96491.88
2018-06-06T05:50:38.880Z,96491.56
2018-06-06T05:53:08.462Z,96494.81
2018-06-06T05:55:37.690Z,96499.72
2018-06-06T05:58:11.356Z,96500.42
2018-06-06T06:00:40.538Z,96503.55
2018-06-06T06:03:09.770Z,96491.75
2018-06-06T06:05:38.948Z,96493.70
2018-06-06T06:08:08.004Z,96498.73
2018-06-06T06:10:37.224Z,96500.19
2018-06-06T06:13:06.377Z,96498.69
2018-06-06T06:15:35.731Z,96497.20
2018-06-06T06:18:05.076Z,96508.95
2018-06-06T06:20:34.856Z,96502.69
2018-06-06T06:23:04.070Z,96499.13
2018-06-06T06:25:33.309Z,96499.77
2018-06-06T06:28:02.467Z,96498.66
2018-06-06T06:30:32.319Z,96504.44
2018-06-06T06:33:02.262Z,96506.39
2018-06-06T06:35:32.489Z,96503.95
2018-06-06T06:38:05.477Z,96512.25
2018-06-06T06:40:34.669Z,96504.38
2018-06-06T06:43:03.811Z,96506.32
2018-06-06T06:45:32.972Z,96503.23
2018-06-06T06:48:02.471Z,96509.05
2018-06-06T06:50:32.934Z,96512.17
2018-06-06T06:53:02.129Z,96504.95
2018-06-06T06:55:31.272Z,96510.69
2018-06-06T06:58:00.516Z,96507.83
2018-06-06T07:00:29.660Z,96504.49
2018-06-06T07:03:02.025Z,96508.09
2018-06-06T07:05:34.001Z,96511.21
2018-06-06T07:08:03.557Z,96513.00
2018-06-06T07:10:32.813Z,96511.47
2018-06-06T07:13:01.969Z,96512.44
2018-06-06T07:15:31.151Z,96515.14
2018-06-06T07:18:00.265Z,96511.45
2018-06-06T07:20:29.443Z,96515.45
2018-06-06T07:22:58.597Z,96515.19
2018-06-06T07:25:29.478Z,96513.75
2018-06-06T07:27:58.674Z,96509.51
2018-06-06T07:30:27.817Z,96514.42
2018-06-06T07:32:56.997Z,96516.09
2018-06-06T07:35:26.158Z,96511.53
2018-06-06T07:37:55.374Z,96509.31
2018-06-06T07:40:30.506Z,96513.41
2018-06-06T07:42:59.696Z,96511.60
2018-06-06T07:45:29.026Z,96508.23
2018-06-06T07:47:58.075Z,96506.38
2018-06-06T07:50:32.382Z,96510.29
2018-06-06T07:53:01.601Z,96506.98
2018-06-06T07:55:30.730Z,96511.48
2018-06-06T07:57:59.964Z,96500.35
2018-06-06T08:00:29.118Z,96505.99
2018-06-06T08:02:58.209Z,96503.53
2018-06-06T08:05:27.387Z,96506.20
2018-06-06T08:07:56.544Z,96501.84
2018-06-06T08:10:25.753Z,96508.34
2018-06-06T08:12:54.991Z,96508.72
2018-06-06T08:15:24.188Z,96506.69
2018-06-06T08:17:56.325Z,96510.58
2018-06-06T08:20:25.467Z,96510.20
2018-06-06T08:22:54.590Z,96517.23
2018-06-06T08:25:23.753Z,96508.23
2018-06-06T08:27:52.924Z,96508.98
2018-06-06T08:30:22.188Z,96509.67
2018-06-06T08:32:51.285Z,96510.81
2018-06-06T08:35:20.431Z,96500.36
2018-06-06T08:37:49.615Z,96511.03
2018-06-06T08:40:22.576Z,96505.47
2018-06-06T08:42:51.740Z,96508.66
2018-06-06T08:45:22.779Z,96511.70
2018-06-06T08:47:51.922Z,96513.20
2018-06-06T08:50:21.070Z,96510.66
2018-06-06T08:52:50.201Z,96510.89
2018-06-06T08:55:25.496Z,96516.56
2018-06-06T08:57:55.528Z,96509.02
2018-06-06T09:00:24.611Z,96510.22
2018-06-06T09:02:53.948Z,96513.72
2018-06-06T09:05:23.080Z,96515.59
2018-06-06T09:07:52.199Z,96514.75
2018-06-06T09:10:26.004Z,96515.19
2018-06-06T09:12:55.136Z,96510.58
2018-06-06T09:15:24.205Z,96515.88
2018-06-06T09:17:53.316Z,96517.39
2018-06-06T09:20:22.466Z,96517.11
2018-06-06T09:22:51.573Z,96519.34
2018-06-06T09:25:20.678Z,96521.66
2018-06-06T09:27:49.832Z,96522.66
2018-06-06T09:30:23.768Z,96521.96
2018-06-06T09:32:52.847Z,96526.22
2018-06-06T09:35:21.985Z,96529.42
2018-06-06T09:37:51.309Z,96527.61
2018-06-06T09:40:24.475Z,96528.54
2018-06-06T09:42:53.539Z,96531.16
2018-06-06T09:45:25.625Z,96530.05
2018-06-06T09:47:54.680Z,96525.63
2018-06-06T09:50:23.746Z,96526.98
2018-06-06T09:52:55.093Z,96526.42
2018-06-06T09:55:24.968Z,96530.53
2018-06-06T09:57:54.201Z,96534.45
2018-06-06T10:00:28.645Z,96529.62
2018-06-06T10:02:57.791Z,96532.02
2018-06-06T10:05:26.845Z,96530.58
2018-06-06T10:07:56.171Z,96536.34
2018-06-06T10:10:32.307Z,96528.94
2018-06-06T10:13:01.393Z,96524.22
2018-06-06T10:15:30.525Z,96523.77
2018-06-06T10:17:59.586Z,96527.13
2018-06-06T10:20:28.658Z,96528.97
2018-06-06T10:22:58.873Z,96527.12
2018-06-06T10:25:28.091Z,96525.52
2018-06-06T10:27:57.184Z,96527.67
2018-06-06T10:30:26.498Z,96527.48
2018-06-06T10:32:55.752Z,96511.77
2018-06-06T10:35:24.889Z,96521.52
2018-06-06T10:37:54.761Z,96515.66
2018-06-06T10:40:31.817Z,96510.00
2018-06-06T10:43:00.941Z,96520.96
2018-06-06T10:45:30.236Z,96513.52
2018-06-06T10:48:04.459Z,96509.20
2018-06-06T10:50:33.715Z,96509.23
2018-06-06T10:53:02.955Z,96505.67
2018-06-06T10:55:32.116Z,96512.54
2018-06-06T10:58:01.216Z,96502.69
2018-06-06T11:00:34.185Z,96504.70
2018-06-06T11:03:03.434Z,96507.47
2018-06-06T11:05:32.593Z,96508.31
2018-06-06T11:08:01.743Z,96506.59
2018-06-06T11:10:30.937Z,96502.81
2018-06-06T11:13:03.477Z,96501.48
2018-06-06T11:15:32.696Z,96503.38
2018-06-06T11:18:01.979Z,96497.76
2018-06-06T11:20:31.150Z,96496.84
2018-06-06T11:23:05.483Z,96496.63
2018-06-06T11:25:34.886Z,96500.69
2018-06-06T11:28:04.079Z,96488.36
2018-06-06T11:30:33.235Z,96489.05
2018-06-06T11:33:02.530Z,96484.14
2018-06-06T11:35:35.256Z,96475.90
2018-06-06T11:38:04.452Z,96470.48
2018-06-06T11:40:33.714Z,96481.77
2018-06-06T11:43:04.696Z,96468.45
2018-06-06T11:45:33.797Z,96475.22
2018-06-06T11:48:02.887Z,96471.36
2018-06-06T11:50:32.078Z,96472.28
2018-06-06T11:53:01.216Z,96471.77
2018-06-06T11:55:30.578Z,96470.63
2018-06-06T11:57:59.712Z,96465.19
2018-06-06T12:00:32.070Z,96451.61
2018-06-06T12:03:01.268Z,96452.62
2018-06-06T12:05:30.391Z,96448.24
2018-06-06T12:07:59.500Z,96455.94
2018-06-06T12:10:28.609Z,96448.19
2018-06-06T12:12:57.702Z,96439.46
2018-06-06T12:15:27.523Z,96442.57
2018-06-06T12:17:56.608Z,96446.06
2018-06-06T12:20:25.767Z,96440.56
2018-06-06T12:22:54.883Z,96440.42
2018-06-06T12:25:23.976Z,96443.03
2018-06-06T12:27:57.424Z,96434.84
2018-06-06T12:30:32.857Z,96438.18
2018-06-06T12:33:02.204Z,96435.98
2018-06-06T12:35:31.413Z,96435.30
2018-06-06T12:38:00.588Z,96443.73
2018-06-06T12:40:29.753Z,96437.34
2018-06-06T12:43:03.837Z,96440.67
2018-06-06T12:45:33.013Z,96431.87
2018-06-06T12:48:02.137Z,96436.63
2018-06-06T12:50:31.390Z,96436.78
2018-06-06T12:53:00.564Z,96427.05
2018-06-06T12:55:29.913Z,96423.50
2018-06-06T12:57:59.103Z,96423.16
2018-06-06T13:00:28.394Z,96417.20
2018-06-06T13:02:57.605Z,96412.57
2018-06-06T13:05:26.830Z,96411.64
2018-06-06T13:07:56.137Z,96411.69
2018-06-06T13:10:25.258Z,96398.48
2018-06-06T13:12:54.487Z,96402.17
2018-06-06T13:15:23.675Z,96400.24
2018-06-06T13:17:53.513Z,96402.52
2018-06-06T13:20:23.487Z,96401.33
2018-06-06T13:22:53.517Z,96398.84
2018-06-06T13:25:24.305Z,96392.42
2018-06-06T13:27:53.584Z,96391.20
2018-06-06T13:30:23.536Z,96389.77
2018-06-06T13:32:53.764Z,96382.89
2018-06-06T13:35:23.529Z,96383.09
2018-06-06T13:37:53.525Z,96383.20
2018-06-06T13:40:27.272Z,96380.89
2018-06-06T13:42:56.444Z,96367.03
2018-06-06T13:45:25.853Z,96372.76
2018-06-06T13:47:55.204Z,96370.70
2018-06-06T13:50:24.444Z,96370.50
2018-06-06T13:52:53.747Z,96372.04
2018-06-06T13:55:23.703Z,96366.69
2018-06-06T13:57:53.717Z,96362.82
2018-06-06T14:02:57.524Z,96364.07
2018-06-06T14:05:26.672Z,96364.03
2018-06-06T14:07:55.832Z,96373.21
2018-06-06T14:10:25.352Z,96370.31
2018-06-06T14:12:54.645Z,96367.39
2018-06-06T14:15:23.863Z,96363.83
2018-06-06T14:17:53.925Z,96379.66
2018-06-06T14:20:23.889Z,96369.49
2018-06-06T14:29:08.759Z,96371.38
2018-06-06T14:31:37.931Z,96383.72
2018-06-06T14:34:07.737Z,96387.16
2018-06-06T14:36:36.917Z,96383.05
2018-06-06T14:39:10.460Z,96380.91
2018-06-06T14:41:39.541Z,96374.22
2018-06-06T14:44:08.691Z,96381.69
2018-06-06T14:46:37.852Z,96394.30
2018-06-06T14:49:06.967Z,96402.87
2018-06-06T14:51:36.133Z,96399.41
2018-06-06T14:54:05.303Z,96397.03
2018-06-06T14:56:34.385Z,96389.92
2018-06-06T14:59:03.631Z,96382.65
2018-06-06T15:01:32.750Z,96374.22
2018-06-06T15:04:01.908Z,96370.73
2018-06-06T15:06:31.051Z,96372.27
2018-06-06T15:09:00.131Z,96384.06
2018-06-06T15:11:32.612Z,96386.68
2018-06-06T15:14:01.724Z,96394.05
2018-06-06T15:16:30.980Z,96398.90
2018-06-06T15:19:00.144Z,96398.27
2018-06-06T15:21:29.366Z,96406.88
2018-06-06T15:23:58.461Z,96406.53
2018-06-06T15:26:27.644Z,96397.70
2018-06-06T15:28:56.868Z,96400.82
2018-06-06T15:31:26.044Z,96410.39
2018-06-06T15:33:55.194Z,96415.38
2018-06-06T15:36:24.528Z,96421.58
2018-06-06T15:38:54.447Z,96425.10
2018-06-06T15:41:26.212Z,96420.90
2018-06-06T15:43:55.324Z,96425.28
2018-06-06T15:46:26.242Z,96425.88
2018-06-06T15:51:30.503Z,96423.30
2018-06-06T15:53:59.678Z,96419.14
2018-06-06T15:56:29.121Z,96416.94
2018-06-06T15:58:58.382Z,96421.17
2018-06-06T16:01:27.719Z,96425.76
2018-06-06T16:04:06.879Z,96432.57
2018-06-06T16:06:49.619Z,96450.48
2018-06-06T16:09:18.923Z,96479.44
2018-06-06T16:11:48.122Z,96488.88
2018-06-06T16:14:18.541Z,96509.33
2018-06-06T16:16:47.769Z,96518.16
2018-06-06T16:19:16.937Z,96534.89
2018-06-06T16:21:46.216Z,96543.27
2018-06-06T16:24:19.071Z,96554.86
2018-06-06T16:26:48.197Z,96559.66
2018-06-06T16:29:17.518Z,96570.05
2018-06-06T16:32:00.575Z,96578.97
2018-06-06T16:34:29.866Z,96592.70
2018-06-06T16:36:58.998Z,96596.16
2018-06-06T16:39:38.493Z,96611.47
2018-06-06T16:42:07.750Z,96613.64
2018-06-06T16:44:37.080Z,96620.06
2018-06-06T16:47:06.634Z,96615.49
2018-06-06T16:49:35.788Z,96594.18
2018-06-06T16:52:04.981Z,96595.41
2018-06-06T16:54:35.106Z,96582.77
2018-06-06T16:57:04.454Z,96586.41
2018-06-06T16:59:33.745Z,96568.66
2018-06-06T17:02:02.872Z,96569.32
2018-06-06T17:04:38.743Z,96570.14
2018-06-06T17:07:07.925Z,96582.94
2018-06-06T17:09:40.571Z,96585.58
2018-06-06T17:12:10.012Z,96584.65
2018-06-06T17:14:41.385Z,96580.57
2018-06-06T17:17:11.581Z,96573.50
2018-06-06T17:22:16.008Z,96557.53
2018-06-06T17:24:46.211Z,96548.70
2018-06-06T17:27:15.356Z,96551.44
2018-06-06T17:29:44.584Z,96551.28
2018-06-06T17:32:13.766Z,96549.17
2018-06-06T17:34:44.081Z,96549.86
2018-06-06T17:37:13.373Z,96544.52
2018-06-06T17:39:51.075Z,96550.64
2018-06-06T17:42:20.253Z,96575.62
2018-06-06T17:44:49.492Z,96603.87
2018-06-06T17:47:21.808Z,96615.84
2018-06-06T17:49:51.031Z,96626.64
2018-06-06T17:52:20.848Z,96630.06
2018-06-06T17:54:50.059Z,96635.22
2018-06-06T17:57:23.019Z,96653.06
2018-06-06T17:59:52.850Z,96677.23
2018-06-06T18:02:22.041Z,96682.59
2018-06-06T18:04:51.272Z,96687.95
2018-06-06T18:07:20.810Z,96697.84
2018-06-06T18:09:50.077Z,96696.78
2018-06-06T18:12:21.237Z,96689.53
2018-06-06T18:14:50.956Z,96685.89
2018-06-06T18:17:20.194Z,96678.34
2018-06-06T18:19:49.412Z,96672.27
2018-06-06T18:22:18.538Z,96655.48
2018-06-06T18:24:48.112Z,96660.81
2018-06-06T18:27:17.191Z,96653.09
2018-06-06T18:29:46.586Z,96650.98
2018-06-06T18:32:16.136Z,96655.59
2018-06-06T18:34:45.326Z,96656.17
2018-06-06T18:37:14.902Z,96660.14
2018-06-06T18:39:44.808Z,96662.67
2018-06-06T18:42:14.760Z,96670.13
2018-06-06T18:44:44.916Z,96672.70
2018-06-06T18:47:14.899Z,96672.27
2018-06-06T18:49:44.900Z,96669.33
2018-06-06T18:52:15.001Z,96670.52
2018-06-06T18:54:44.929Z,96662.90
2018-06-06T18:57:14.869Z,96665.37
2018-06-06T18:59:44.855Z,96670.83
2018-06-06T19:02:14.841Z,96666.78
2018-06-06T19:04:44.864Z,96669.84
2018-06-06T19:07:19.513Z,96676.34
2018-06-06T19:09:48.599Z,96678.06
2018-06-06T19:12:17.744Z,96677.37
2018-06-06T19:14:47.763Z,96692.81
2018-06-06T19:17:18.159Z,96691.11
2018-06-06T19:19:47.439Z,96697.11
2018-06-06T19:22:16.586Z,96685.97
2018-06-06T19:24:45.750Z,96691.42
2018-06-06T19:27:14.864Z,96677.02
2018-06-06T19:29:45.114Z,96679.17
2018-06-06T19:32:14.299Z,96677.50
2018-06-06T19:34:43.414Z,96670.75
2018-06-06T19:37:12.588Z,96681.74
2018-06-06T19:39:41.955Z,96671.02
2018-06-06T19:42:11.440Z,96664.73
2018-06-06T19:44:49.710Z,96665.16
2018-06-06T19:47:18.862Z,96661.58
2018-06-06T19:49:47.939Z,96656.25
2018-06-06T19:52:18.360Z,96649.51
2018-06-06T19:54:48.211Z,96644.36
2018-06-06T19:57:18.178Z,96642.52
2018-06-06T19:59:49.124Z,96645.09
2018-06-06T20:02:19.238Z,96639.31
2018-06-06T20:04:48.677Z,96645.21
2018-06-06T20:07:17.900Z,96648.70
2018-06-06T20:09:47.457Z,96646.72
2018-06-06T20:12:16.777Z,96643.30
2018-06-06T20:14:50.115Z,96647.79
2018-06-06T20:17:19.897Z,96644.42
2018-06-06T20:19:49.104Z,96640.45
2018-06-06T20:22:18.238Z,96633.85
2018-06-06T20:24:48.102Z,96616.71
2018-06-06T20:27:17.277Z,96616.98
2018-06-06T20:29:46.479Z,96620.77
2018-06-06T20:32:15.958Z,96620.57
2018-06-06T20:34:49.093Z,96626.03
2018-06-06T20:37:22.055Z,96620.08
2018-06-06T20:39:51.252Z,96617.51
2018-06-06T20:42:20.471Z,96637.71
2018-06-06T20:44:49.772Z,96653.59
2018-06-06T20:47:19.090Z,96653.64
2018-06-06T20:49:48.191Z,96658.47
2018-06-06T20:52:17.592Z,96661.52
2018-06-06T20:54:46.709Z,96670.20
2018-06-06T20:57:15.853Z,96675.99
2018-06-06T20:59:45.064Z,96675.99
2018-06-06T21:02:17.860Z,96672.30
2018-06-06T21:04:47.060Z,96680.44
2018-06-06T21:07:16.173Z,96681.19
2018-06-06T21:09:45.387Z,96696.16
2018-06-06T21:12:28.333Z,96691.21
2018-06-06T21:14:57.658Z,96694.27
2018-06-06T21:17:26.978Z,96704.23
2018-06-06T21:19:56.260Z,96715.81
2018-06-06T21:22:25.966Z,96726.33
2018-06-06T21:24:55.288Z,96727.55
2018-06-06T21:27:24.387Z,96718.03
2018-06-06T21:30:00.940Z,96715.30
2018-06-06T21:32:30.466Z,96714.38
2018-06-06T21:34:59.678Z,96723.92
2018-06-06T21:37:28.841Z,96719.73
2018-06-06T21:39:58.139Z,96724.47
2018-06-06T21:42:28.932Z,96725.05
2018-06-06T21:44:58.018Z,96731.58
2018-06-06T21:47:27.193Z,96732.53
2018-06-06T21:49:58.414Z,96733.20
2018-06-06T21:52:27.657Z,96736.80
2018-06-06T21:54:56.795Z,96746.39
2018-06-06T21:57:25.999Z,96743.39
2018-06-06T21:59:55.161Z,96749.01
2018-06-06T22:02:30.266Z,96757.62
2018-06-06T22:05:07.886Z,96758.96
2018-06-06T22:07:37.062Z,96756.81
2018-06-06T22:10:06.351Z,96757.20
2018-06-06T22:12:35.573Z,96761.39
2018-06-06T22:15:04.862Z,96759.95
2018-06-06T22:17:33.968Z,96761.23
2018-06-06T22:20:03.112Z,96763.05
2018-06-06T22:22:32.290Z,96759.73
2018-06-06T22:25:01.405Z,96760.67
2018-06-06T22:27:30.683Z,96767.57
2018-06-06T22:29:59.808Z,96761.71
2018-06-06T22:32:28.977Z,96763.56
2018-06-06T22:34:58.330Z,96761.71
2018-06-06T22:37:27.617Z,96760.38
2018-06-06T22:39:59.644Z,96760.73
2018-06-06T22:42:28.907Z,96754.72
2018-06-06T22:44:58.139Z,96753.91
2018-06-06T22:47:27.363Z,96758.16
2018-06-06T22:49:56.703Z,96759.01
2018-06-06T22:52:25.967Z,96763.80
2018-06-06T22:54:55.188Z,96757.52
2018-06-06T22:57:24.468Z,96752.47
2018-06-06T22:59:53.661Z,96748.19
2018-06-06T23:02:23.479Z,96744.28
2018-06-06T23:04:52.775Z,96746.09
2018-06-06T23:07:21.943Z,96736.47
2018-06-06T23:09:51.037Z,96736.47
2018-06-06T23:12:20.167Z,96729.63
2018-06-06T23:14:49.464Z,96732.70
2018-06-06T23:17:21.627Z,96725.38
2018-06-06T23:19:50.731Z,96719.44
2018-06-06T23:22:19.895Z,96717.77
2018-06-06T23:24:49.296Z,96714.44
2018-06-06T23:27:18.731Z,96714.48
2018-06-06T23:29:47.986Z,96714.44
2018-06-06T23:32:17.152Z,96717.42
2018-06-06T23:34:46.296Z,96717.91
2018-06-06T23:37:15.420Z,96709.80
2018-06-06T23:39:44.752Z,96708.43
2018-06-06T23:42:14.415Z,96703.30
2018-06-06T23:44:44.634Z,96706.67
2018-06-06T23:47:18.897Z,96709.24
2018-06-06T23:49:48.129Z,96707.95
2018-06-06T23:52:17.269Z,96700.00
2018-06-06T23:54:46.545Z,96700.91
2018-06-06T23:57:15.876Z,96699.34
2018-06-06T23:59:45.950Z,96697.80
